Предлагаем Вашему вниманию английскую версию страницы: AUTOTAF.ME 37507 - aviation weather forecast Adigeni

AUTOTAF 37507 - авиапрогноз Адигени

Сегодня рассвет 04:01 UTC, восход солнца 04:31 UTC,
местный полдень 09:19 UTC, заход солнца 14:08 UTC,
наступление темноты 14:38 UTC.

Краткий прогноз 37507 на 9 часов

AUTOTAF.ME 37507 190800Z 1909/1918 VRB02MPS 2000 SHSN BKN009 OVC010CB     
  FM191500 VRB02MPS 0900 SHSN FZFG BKN003 OVC010CB 
  FM191800 VRB02MPS 0500 FZFG BKN002

Детальный прогноз 37507 на 24 часа

AUTOTAF.ME 37507 190800Z 1909/2009 VRB02MPS 2000 SHSN BKN009 OVC010CB TXM07/1909Z TNM13/2000Z   
  FM191500 VRB02MPS 0900 SHSN FZFG BKN003 OVC010CB 
  FM191800 VRB02MPS 0500 FZFG BKN002  
  FM200000 VRB02MPS 0200 FZFG BKN001  
  FM200600 VRB02MPS 9999 BKN009

Подробный табличный прогноз

Время (UTC) miniAUTOTAF на 3 ч WX FZLVL
M AGL
ICE TURB Т
(°С)
Тd
(°С)
f(%) QNH
(гПа)
WIND/T
06 VRB02MPS 2000 SN BKN007 SN SFC FBL FL90/FL120 -10 -12 83 1019 ...
09 VRB02MPS 2000 SHSN BKN009 OVC010CB SHSN SFC FBL FL90/FL120 -7 -11 74 1018 ...
12 31003MPS 2000 SHSN BKN008 OVC010CB SHSN SFC FBL FL90/FL120 -7 -11 74 1016 ...
15 VRB02MPS 0900 SHSN FZFG BKN003 OVC010CB SHSN FZFG SFC FBL FL90/FL110 -9 -11 85 1019 ...
18 VRB02MPS 0500 FZFG BKN002 FZFG SFC MOD FL90/FL100 -10 -12 87 1019 ...
21 VRB02MPS 0500 FZFG BKN002 FZFG SFC MOD FL90/FL110 -12 -14 88 1021 ...
20.01.2021
00 VRB02MPS 0200 FZFG BKN001 FZFG SFC MOD FL90/FL110 -13 -15 85 1020 ...
03 VRB02MPS 0200 FZFG BKN001 FZFG SFC MOD FL90/FL110 -13 -15 86 1021 ...
06 VRB02MPS 9999 BKN009 SFC MOD FL90/FL100 -12 -14 80 1021 ...
09 VRB02MPS 9999 BKN009 SFC MOD FL120/FL130 MOD FL110/FL120 -9 -13 73 1020 ...
12 30003MPS 3500 -SN BKN009 -SN SFC MOD FL90/FL100 MOD FL110/FL120 -8 -11 80 1019 ...
15 32003MPS 1500 SHSN BKN009 BKN010CB SHSN SFC FBL FL90/FL120 -10 -14 75 1023 ...
18 VRB02MPS 1500 SN BKN010 SN SFC MOD FL120/FL130 -11 -14 75 1024 ...
21 29003MPS 1500 SN OVC010 SN SFC MOD FL120/FL130 MOD FL110/FL120 -11 -15 76 1026 ...
21.01.2021
00 VRB02MPS 1000 SHSN BR BKN003 OVC010CB SHSN BR SFC FBL FL90/FL110 MOD FL110/FL120 -11 -15 72 1027 ...
03 30003MPS 1500 SN OVC010 SN SFC FBL FL90/FL110 -10 -14 72 1029 ...


Широта 41.7°, долгота 42.7°, высота 1185 м абс.
Средняя высота рельефа местности 1992 м абс.
Прогнозы обновляются четыре раза в сутки: в 02, 08, 14, 20 ч всемирного времени.


Выбрать прогноз по другой модели Адигени
Онлайн-сводка гроз по Адигени (для РФ и ближнего зарубежья)
Карта фактических гроз в окрестностях Адигени
Динамические прогностические карты (ventusky.com)
Прогностическая карта высоты нижней границы облаков по Адигени (windy.com)
Выбрать другой город

Прогноз предназначен для личного научно-познавательного использования частными лицами
и не предназначен для принятия важных решений и выполнения реальных полётов воздушных судов

При копировании или ином использовании любых материалов данного сайта ссылка на © meteocenter.asia обязательна.

0.58/1.2